This is the latest recevied weather packets stored in our database for station/object WX4SGA. If no packets are shown the sender has not sent any weather packets the latest 10 day(s).
| Time | Temp. | Humidity | Pressure | Rain* | Wind** | Luminosity | Snow |
|---|---|---|---|---|---|---|---|
| 1778272498 | 23.89° C | 71% | 1015.2 hPa | 0 mm | - | 179 W/m² | - |
| 1778272194 | 23.89° C | 70% | 1015.2 hPa | 0 mm | - | 138 W/m² | - |
| 1778271891 | 23.89° C | 69% | 1015.2 hPa | 0 mm | - | 121 W/m² | - |
| 1778271588 | 23.89° C | 67% | 1015.2 hPa | 0 mm | - | 99 W/m² | - |
| 1778271284 | 23.89° C | 68% | 1015.2 hPa | 0 mm | - | 91 W/m² | - |
| 1778270981 | 24.44° C | 66% | 1015.2 hPa | 0 mm | - | 124 W/m² | - |
| 1778270678 | 23.89° C | 67% | 1014.9 hPa | 0 mm | - | 216 W/m² | - |
| 1778270373 | 23.89° C | 68% | 1014.9 hPa | 0 mm | - | 174 W/m² | - |
| 1778270071 | 23.89° C | 68% | 1015.2 hPa | 0 mm | - | 147 W/m² | - |
| 1778269766 | 23.89° C | 69% | 1015.2 hPa | 0 mm | - | 129 W/m² | - |
| 1778269464 | 23.89° C | 72% | 1015.2 hPa | 0 mm | - | 132 W/m² | - |
| 1778269160 | 23.89° C | 69% | 1015.2 hPa | 0 mm | - | 145 W/m² | - |
| 1778268857 | 23.89° C | 68% | 1015.2 hPa | 0 mm | - | 151 W/m² | - |
| 1778268553 | 24.44° C | 67% | 1015.2 hPa | 0 mm | - | 140 W/m² | - |
| 1778268250 | 24.44° C | 67% | 1015.6 hPa | 0 mm | - | 143 W/m² | - |
| 1778267948 | 24.44° C | 67% | 1015.6 hPa | 0 mm | - | 146 W/m² | - |
| 1778267645 | 24.44° C | 67% | 1015.6 hPa | 0 mm | - | 149 W/m² | - |
| 1778267342 | 24.44° C | 65% | 1015.6 hPa | 0 mm | - | 166 W/m² | - |
| 1778267039 | 24.44° C | 64% | 1015.6 hPa | 0 mm | - | 176 W/m² | - |
| 1778266734 | 24.44° C | 66% | 1015.6 hPa | 0 mm | - | 206 W/m² | - |
| 1778266433 | 25° C | 66% | 1015.6 hPa | 0 mm | - | 193 W/m² | - |
| 1778266130 | 24.44° C | 65% | 1015.9 hPa | 0 mm | - | 196 W/m² | - |
| 1778265827 | 24.44° C | 64% | 1015.6 hPa | 0 mm | - | 254 W/m² | - |
| 1778265523 | 24.44° C | 64% | 1015.9 hPa | 0 mm | - | 233 W/m² | - |
| 1778265220 | 24.44° C | 66% | 1015.9 hPa | 0 mm | - | 226 W/m² | - |
* Rain latest hour (hover to see other rain measurements)
** Current wind speed in m/s (hover to see current wind gust speed)